Terminal Aerodrome Forecast
Issued by NWS

Home | Current Version | Previous Version | Text Only | Print | Product List | Glossary On
Versions: 1 2 3 4 5 6 7 8 9 10 11 12 13 14 15 16 17 18 19 20 21 22 23 24 25 26
000
FTPA31 PHFO 030300 AAA
TAFJHM
TAF AMD
PHJH 030311Z 0303/0324 17008KT P6SM VCSH FEW010 BKN040
     FM032000 27008KT P6SM VCSH SCT015 BKN040
      AMD NOT SKED AFT 030400=

USA.gov is the U.S. government's official web portal to all federal, state and local government web resources and services.